sensor_id;sensor_type;location;lat;lon;timestamp;P1;durP1;ratioP1;P2;durP2;ratioP2
10005;SDS011;5042;42.626;23.382;2022-08-25T00:00:34;4.40;;;3.88;;
10005;SDS011;5042;42.626;23.382;2022-08-25T00:03:01;5.18;;;3.78;;
10005;SDS011;5042;42.626;23.382;2022-08-25T00:05:28;7.05;;;3.83;;
10005;SDS011;5042;42.626;23.382;2022-08-25T00:07:55;5.35;;;3.67;;
10005;SDS011;5042;42.626;23.382;2022-08-25T00:10:22;4.82;;;3.67;;
10005;SDS011;5042;42.626;23.382;2022-08-25T00:12:51;6.32;;;4.28;;
10005;SDS011;5042;42.626;23.382;2022-08-25T00:15:18;7.30;;;3.80;;
10005;SDS011;5042;42.626;23.382;2022-08-25T00:17:47;5.43;;;3.83;;
10005;SDS011;5042;42.626;23.382;2022-08-25T00:20:15;6.05;;;3.60;;
10005;SDS011;5042;42.626;23.382;2022-08-25T00:22:41;6.15;;;4.53;;
10005;SDS011;5042;42.626;23.382;2022-08-25T00:25:09;4.85;;;3.33;;
10005;SDS011;5042;42.626;23.382;2022-08-25T00:27:36;8.73;;;3.92;;
10005;SDS011;5042;42.626;23.382;2022-08-25T00:30:05;8.15;;;4.10;;
10005;SDS011;5042;42.626;23.382;2022-08-25T00:32:34;7.32;;;3.97;;
10005;SDS011;5042;42.626;23.382;2022-08-25T00:35:02;6.57;;;3.45;;
10005;SDS011;5042;42.626;23.382;2022-08-25T00:37:29;5.68;;;3.50;;
10005;SDS011;5042;42.626;23.382;2022-08-25T00:39:56;6.43;;;3.75;;
10005;SDS011;5042;42.626;23.382;2022-08-25T00:42:23;4.50;;;3.55;;
10005;SDS011;5042;42.626;23.382;2022-08-25T00:44:50;7.15;;;3.65;;
10005;SDS011;5042;42.626;23.382;2022-08-25T00:47:19;3.83;;;3.40;;
10005;SDS011;5042;42.626;23.382;2022-08-25T00:49:46;4.35;;;3.33;;
10005;SDS011;5042;42.626;23.382;2022-08-25T00:52:17;4.53;;;3.47;;
10005;SDS011;5042;42.626;23.382;2022-08-25T00:54:48;3.83;;;3.42;;
10005;SDS011;5042;42.626;23.382;2022-08-25T00:57:18;5.13;;;3.90;;
10005;SDS011;5042;42.626;23.382;2022-08-25T00:59:48;5.82;;;3.97;;
10005;SDS011;5042;42.626;23.382;2022-08-25T01:02:15;4.95;;;3.55;;
10005;SDS011;5042;42.626;23.382;2022-08-25T01:04:47;5.10;;;3.70;;
10005;SDS011;5042;42.626;23.382;2022-08-25T01:07:14;4.88;;;3.47;;
10005;SDS011;5042;42.626;23.382;2022-08-25T01:09:43;6.78;;;3.92;;
10005;SDS011;5042;42.626;23.382;2022-08-25T01:12:11;5.65;;;4.05;;
10005;SDS011;5042;42.626;23.382;2022-08-25T01:14:38;5.68;;;3.80;;
10005;SDS011;5042;42.626;23.382;2022-08-25T01:17:05;7.50;;;3.60;;
10005;SDS011;5042;42.626;23.382;2022-08-25T01:19:33;5.35;;;3.72;;
10005;SDS011;5042;42.626;23.382;2022-08-25T01:22:02;5.85;;;4.00;;
10005;SDS011;5042;42.626;23.382;2022-08-25T01:24:30;7.35;;;4.32;;
10005;SDS011;5042;42.626;23.382;2022-08-25T01:27:03;7.00;;;4.22;;
10005;SDS011;5042;42.626;23.382;2022-08-25T01:29:31;6.03;;;3.97;;
10005;SDS011;5042;42.626;23.382;2022-08-25T01:32:00;4.57;;;3.90;;
10005;SDS011;5042;42.626;23.382;2022-08-25T01:34:31;6.30;;;4.07;;
10005;SDS011;5042;42.626;23.382;2022-08-25T01:37:02;5.00;;;3.78;;
10005;SDS011;5042;42.626;23.382;2022-08-25T01:39:30;5.85;;;3.95;;
10005;SDS011;5042;42.626;23.382;2022-08-25T01:42:22;6.32;;;3.92;;
10005;SDS011;5042;42.626;23.382;2022-08-25T01:44:58;6.10;;;4.13;;
10005;SDS011;5042;42.626;23.382;2022-08-25T01:47:25;4.43;;;3.70;;
10005;SDS011;5042;42.626;23.382;2022-08-25T01:49:52;5.88;;;4.43;;
10005;SDS011;5042;42.626;23.382;2022-08-25T01:52:24;6.47;;;3.90;;
10005;SDS011;5042;42.626;23.382;2022-08-25T01:54:53;9.68;;;4.70;;
10005;SDS011;5042;42.626;23.382;2022-08-25T01:57:20;7.70;;;4.40;;
10005;SDS011;5042;42.626;23.382;2022-08-25T01:59:47;5.43;;;4.18;;
10005;SDS011;5042;42.626;23.382;2022-08-25T02:02:14;7.78;;;4.57;;
10005;SDS011;5042;42.626;23.382;2022-08-25T02:04:41;5.78;;;4.65;;
10005;SDS011;5042;42.626;23.382;2022-08-25T02:07:08;6.43;;;4.30;;
10005;SDS011;5042;42.626;23.382;2022-08-25T02:09:37;6.63;;;4.53;;
10005;SDS011;5042;42.626;23.382;2022-08-25T02:12:04;15.98;;;5.75;;
10005;SDS011;5042;42.626;23.382;2022-08-25T02:14:33;7.45;;;4.63;;
10005;SDS011;5042;42.626;23.382;2022-08-25T02:17:01;5.57;;;4.60;;
10005;SDS011;5042;42.626;23.382;2022-08-25T02:19:29;7.13;;;5.03;;
10005;SDS011;5042;42.626;23.382;2022-08-25T02:21:56;8.07;;;4.78;;
10005;SDS011;5042;42.626;23.382;2022-08-25T02:24:22;7.47;;;4.65;;
10005;SDS011;5042;42.626;23.382;2022-08-25T02:26:51;7.50;;;4.95;;
10005;SDS011;5042;42.626;23.382;2022-08-25T02:29:18;8.30;;;5.80;;
10005;SDS011;5042;42.626;23.382;2022-08-25T02:31:45;6.85;;;5.00;;
10005;SDS011;5042;42.626;23.382;2022-08-25T02:34:12;9.15;;;5.68;;
10005;SDS011;5042;42.626;23.382;2022-08-25T02:36:40;5.80;;;5.18;;
10005;SDS011;5042;42.626;23.382;2022-08-25T02:39:07;9.00;;;5.10;;
10005;SDS011;5042;42.626;23.382;2022-08-25T02:41:35;11.30;;;5.90;;
10005;SDS011;5042;42.626;23.382;2022-08-25T02:44:04;6.65;;;5.47;;
10005;SDS011;5042;42.626;23.382;2022-08-25T02:46:31;7.65;;;4.97;;
10005;SDS011;5042;42.626;23.382;2022-08-25T02:48:58;6.40;;;4.63;;
10005;SDS011;5042;42.626;23.382;2022-08-25T02:51:26;6.68;;;4.65;;
10005;SDS011;5042;42.626;23.382;2022-08-25T02:53:54;6.43;;;4.43;;
10005;SDS011;5042;42.626;23.382;2022-08-25T02:56:21;7.03;;;4.57;;
10005;SDS011;5042;42.626;23.382;2022-08-25T02:58:49;6.47;;;4.50;;
10005;SDS011;5042;42.626;23.382;2022-08-25T03:01:18;6.43;;;4.43;;
10005;SDS011;5042;42.626;23.382;2022-08-25T03:03:45;8.35;;;4.75;;
10005;SDS011;5042;42.626;23.382;2022-08-25T03:06:14;10.20;;;4.70;;
10005;SDS011;5042;42.626;23.382;2022-08-25T03:08:42;5.60;;;3.92;;
10005;SDS011;5042;42.626;23.382;2022-08-25T03:11:09;5.85;;;4.43;;
10005;SDS011;5042;42.626;23.382;2022-08-25T03:13:37;5.82;;;4.60;;
10005;SDS011;5042;42.626;23.382;2022-08-25T03:16:04;5.82;;;4.20;;
10005;SDS011;5042;42.626;23.382;2022-08-25T03:18:33;6.43;;;4.60;;
10005;SDS011;5042;42.626;23.382;2022-08-25T03:21:01;7.07;;;4.65;;
10005;SDS011;5042;42.626;23.382;2022-08-25T03:23:28;5.90;;;4.20;;
10005;SDS011;5042;42.626;23.382;2022-08-25T03:25:55;11.23;;;4.25;;
10005;SDS011;5042;42.626;23.382;2022-08-25T03:28:39;7.82;;;4.47;;
10005;SDS011;5042;42.626;23.382;2022-08-25T03:31:06;5.95;;;3.63;;
10005;SDS011;5042;42.626;23.382;2022-08-25T03:33:35;5.35;;;4.03;;
10005;SDS011;5042;42.626;23.382;2022-08-25T03:36:03;5.70;;;4.07;;
10005;SDS011;5042;42.626;23.382;2022-08-25T03:38:30;5.93;;;4.80;;
10005;SDS011;5042;42.626;23.382;2022-08-25T03:40:56;5.07;;;3.97;;
10005;SDS011;5042;42.626;23.382;2022-08-25T03:43:23;5.82;;;4.10;;
10005;SDS011;5042;42.626;23.382;2022-08-25T03:45:50;5.28;;;4.25;;
10005;SDS011;5042;42.626;23.382;2022-08-25T03:48:17;6.47;;;4.22;;
10005;SDS011;5042;42.626;23.382;2022-08-25T03:50:46;6.43;;;3.90;;
10005;SDS011;5042;42.626;23.382;2022-08-25T03:53:14;4.13;;;3.72;;
10005;SDS011;5042;42.626;23.382;2022-08-25T03:55:41;4.60;;;3.88;;
10005;SDS011;5042;42.626;23.382;2022-08-25T03:58:08;5.63;;;4.35;;
10005;SDS011;5042;42.626;23.382;2022-08-25T04:00:35;7.57;;;4.38;;
10005;SDS011;5042;42.626;23.382;2022-08-25T04:03:02;7.13;;;4.07;;
10005;SDS011;5042;42.626;23.382;2022-08-25T04:05:29;4.50;;;3.58;;
10005;SDS011;5042;42.626;23.382;2022-08-25T04:07:57;6.85;;;3.90;;
10005;SDS011;5042;42.626;23.382;2022-08-25T04:10:25;8.73;;;4.72;;
10005;SDS011;5042;42.626;23.382;2022-08-25T04:12:52;6.47;;;4.57;;
10005;SDS011;5042;42.626;23.382;2022-08-25T04:15:20;8.70;;;4.57;;
10005;SDS011;5042;42.626;23.382;2022-08-25T04:17:46;8.52;;;4.60;;
10005;SDS011;5042;42.626;23.382;2022-08-25T04:20:13;5.75;;;4.35;;
10005;SDS011;5042;42.626;23.382;2022-08-25T04:22:40;7.60;;;4.55;;
10005;SDS011;5042;42.626;23.382;2022-08-25T04:25:09;6.95;;;4.65;;
10005;SDS011;5042;42.626;23.382;2022-08-25T04:27:35;9.02;;;5.00;;
10005;SDS011;5042;42.626;23.382;2022-08-25T04:30:03;5.35;;;3.95;;
10005;SDS011;5042;42.626;23.382;2022-08-25T04:32:31;6.15;;;4.30;;
10005;SDS011;5042;42.626;23.382;2022-08-25T04:34:58;5.63;;;4.30;;
10005;SDS011;5042;42.626;23.382;2022-08-25T04:37:24;6.93;;;4.55;;
10005;SDS011;5042;42.626;23.382;2022-08-25T04:39:51;8.27;;;4.50;;
10005;SDS011;5042;42.626;23.382;2022-08-25T04:42:20;6.88;;;4.93;;
10005;SDS011;5042;42.626;23.382;2022-08-25T04:44:47;4.75;;;3.92;;
10005;SDS011;5042;42.626;23.382;2022-08-25T04:47:14;9.25;;;5.50;;
10005;SDS011;5042;42.626;23.382;2022-08-25T04:49:41;5.47;;;4.43;;
10005;SDS011;5042;42.626;23.382;2022-08-25T04:52:07;6.28;;;4.60;;
10005;SDS011;5042;42.626;23.382;2022-08-25T04:54:34;7.75;;;4.68;;
10005;SDS011;5042;42.626;23.382;2022-08-25T04:57:01;6.28;;;4.88;;
10005;SDS011;5042;42.626;23.382;2022-08-25T04:59:29;9.43;;;4.43;;
10005;SDS011;5042;42.626;23.382;2022-08-25T05:01:56;5.97;;;4.35;;
10005;SDS011;5042;42.626;23.382;2022-08-25T05:04:26;8.60;;;5.38;;
10005;SDS011;5042;42.626;23.382;2022-08-25T05:06:53;8.02;;;4.70;;
10005;SDS011;5042;42.626;23.382;2022-08-25T05:09:19;8.40;;;4.90;;
10005;SDS011;5042;42.626;23.382;2022-08-25T05:11:46;7.05;;;4.85;;
10005;SDS011;5042;42.626;23.382;2022-08-25T05:14:13;5.30;;;4.43;;
10005;SDS011;5042;42.626;23.382;2022-08-25T05:16:47;8.82;;;4.10;;
10005;SDS011;5042;42.626;23.382;2022-08-25T05:19:14;7.20;;;4.82;;
10005;SDS011;5042;42.626;23.382;2022-08-25T05:21:41;6.60;;;4.65;;
10005;SDS011;5042;42.626;23.382;2022-08-25T05:24:08;6.53;;;4.35;;
10005;SDS011;5042;42.626;23.382;2022-08-25T05:26:35;6.97;;;4.95;;
10005;SDS011;5042;42.626;23.382;2022-08-25T05:29:04;6.00;;;4.50;;
10005;SDS011;5042;42.626;23.382;2022-08-25T05:31:31;6.97;;;4.15;;
10005;SDS011;5042;42.626;23.382;2022-08-25T05:34:03;5.75;;;3.95;;
10005;SDS011;5042;42.626;23.382;2022-08-25T05:36:31;11.73;;;4.90;;
10005;SDS011;5042;42.626;23.382;2022-08-25T05:38:58;7.13;;;4.68;;
10005;SDS011;5042;42.626;23.382;2022-08-25T05:41:25;6.22;;;4.28;;
10005;SDS011;5042;42.626;23.382;2022-08-25T05:43:55;6.63;;;4.93;;
10005;SDS011;5042;42.626;23.382;2022-08-25T05:46:21;7.28;;;4.65;;
10005;SDS011;5042;42.626;23.382;2022-08-25T05:48:48;8.40;;;4.80;;
10005;SDS011;5042;42.626;23.382;2022-08-25T05:51:17;7.20;;;4.50;;
10005;SDS011;5042;42.626;23.382;2022-08-25T05:53:45;4.65;;;4.00;;
10005;SDS011;5042;42.626;23.382;2022-08-25T05:56:13;9.40;;;5.05;;
10005;SDS011;5042;42.626;23.382;2022-08-25T05:58:41;5.63;;;4.38;;
10005;SDS011;5042;42.626;23.382;2022-08-25T06:01:08;7.03;;;3.88;;
10005;SDS011;5042;42.626;23.382;2022-08-25T06:03:53;7.78;;;4.60;;
10005;SDS011;5042;42.626;23.382;2022-08-25T06:06:21;6.95;;;4.50;;
10005;SDS011;5042;42.626;23.382;2022-08-25T06:08:50;8.13;;;4.88;;
10005;SDS011;5042;42.626;23.382;2022-08-25T06:11:17;10.13;;;4.72;;
10005;SDS011;5042;42.626;23.382;2022-08-25T06:13:44;7.00;;;4.97;;
10005;SDS011;5042;42.626;23.382;2022-08-25T06:16:11;4.82;;;4.15;;
10005;SDS011;5042;42.626;23.382;2022-08-25T06:18:38;6.03;;;4.55;;
10005;SDS011;5042;42.626;23.382;2022-08-25T06:21:09;7.32;;;4.68;;
10005;SDS011;5042;42.626;23.382;2022-08-25T06:23:39;12.70;;;5.32;;
10005;SDS011;5042;42.626;23.382;2022-08-25T06:26:06;5.00;;;4.20;;
10005;SDS011;5042;42.626;23.382;2022-08-25T06:28:35;8.23;;;4.93;;
10005;SDS011;5042;42.626;23.382;2022-08-25T06:31:02;8.38;;;5.07;;
10005;SDS011;5042;42.626;23.382;2022-08-25T06:33:29;6.95;;;4.57;;
10005;SDS011;5042;42.626;23.382;2022-08-25T06:35:56;6.43;;;4.68;;
10005;SDS011;5042;42.626;23.382;2022-08-25T06:38:24;7.05;;;4.60;;
10005;SDS011;5042;42.626;23.382;2022-08-25T06:40:52;5.70;;;4.03;;
10005;SDS011;5042;42.626;23.382;2022-08-25T06:43:21;8.50;;;4.80;;
10005;SDS011;5042;42.626;23.382;2022-08-25T06:45:49;4.93;;;4.07;;
10005;SDS011;5042;42.626;23.382;2022-08-25T06:48:15;6.95;;;4.72;;
10005;SDS011;5042;42.626;23.382;2022-08-25T06:50:42;6.60;;;4.45;;
10005;SDS011;5042;42.626;23.382;2022-08-25T06:53:11;6.97;;;3.58;;
10005;SDS011;5042;42.626;23.382;2022-08-25T06:55:38;4.80;;;3.45;;
10005;SDS011;5042;42.626;23.382;2022-08-25T06:58:06;7.13;;;3.47;;
10005;SDS011;5042;42.626;23.382;2022-08-25T07:00:34;3.70;;;3.40;;
10005;SDS011;5042;42.626;23.382;2022-08-25T07:03:01;4.93;;;3.35;;
10005;SDS011;5042;42.626;23.382;2022-08-25T07:05:29;4.85;;;3.28;;
10005;SDS011;5042;42.626;23.382;2022-08-25T07:07:55;7.30;;;3.55;;
10005;SDS011;5042;42.626;23.382;2022-08-25T07:10:22;4.80;;;3.35;;
10005;SDS011;5042;42.626;23.382;2022-08-25T07:12:50;5.38;;;2.92;;
10005;SDS011;5042;42.626;23.382;2022-08-25T07:15:18;4.22;;;3.80;;
10005;SDS011;5042;42.626;23.382;2022-08-25T07:17:45;6.60;;;3.85;;
10005;SDS011;5042;42.626;23.382;2022-08-25T07:20:12;5.10;;;3.88;;
10005;SDS011;5042;42.626;23.382;2022-08-25T07:22:39;4.13;;;2.95;;
10005;SDS011;5042;42.626;23.382;2022-08-25T07:25:06;4.95;;;3.70;;
10005;SDS011;5042;42.626;23.382;2022-08-25T07:27:35;3.53;;;3.22;;
10005;SDS011;5042;42.626;23.382;2022-08-25T07:30:02;5.15;;;3.17;;
10005;SDS011;5042;42.626;23.382;2022-08-25T07:32:32;4.03;;;2.70;;
10005;SDS011;5042;42.626;23.382;2022-08-25T07:34:59;5.88;;;2.83;;
10005;SDS011;5042;42.626;23.382;2022-08-25T07:37:41;8.32;;;3.30;;
10005;SDS011;5042;42.626;23.382;2022-08-25T07:40:11;4.85;;;2.70;;
10005;SDS011;5042;42.626;23.382;2022-08-25T07:42:39;7.60;;;3.35;;
10005;SDS011;5042;42.626;23.382;2022-08-25T07:45:07;6.10;;;2.90;;
10005;SDS011;5042;42.626;23.382;2022-08-25T07:47:37;4.28;;;2.75;;
10005;SDS011;5042;42.626;23.382;2022-08-25T07:50:04;3.80;;;2.90;;
10005;SDS011;5042;42.626;23.382;2022-08-25T07:52:32;4.53;;;2.92;;
10005;SDS011;5042;42.626;23.382;2022-08-25T07:54:59;5.18;;;3.75;;
10005;SDS011;5042;42.626;23.382;2022-08-25T07:57:26;3.08;;;2.70;;
10005;SDS011;5042;42.626;23.382;2022-08-25T07:59:53;4.50;;;2.92;;
10005;SDS011;5042;42.626;23.382;2022-08-25T08:02:20;6.57;;;3.63;;
10005;SDS011;5042;42.626;23.382;2022-08-25T08:04:49;5.30;;;2.58;;
10005;SDS011;5042;42.626;23.382;2022-08-25T08:07:18;7.95;;;2.90;;
10005;SDS011;5042;42.626;23.382;2022-08-25T08:09:47;6.50;;;3.20;;
10005;SDS011;5042;42.626;23.382;2022-08-25T08:12:14;3.65;;;3.03;;
10005;SDS011;5042;42.626;23.382;2022-08-25T08:14:41;4.45;;;2.97;;
10005;SDS011;5042;42.626;23.382;2022-08-25T08:17:08;3.50;;;2.72;;
10005;SDS011;5042;42.626;23.382;2022-08-25T08:19:35;6.72;;;2.67;;
10005;SDS011;5042;42.626;23.382;2022-08-25T08:22:04;7.03;;;3.15;;
10005;SDS011;5042;42.626;23.382;2022-08-25T08:24:31;5.80;;;2.92;;
10005;SDS011;5042;42.626;23.382;2022-08-25T08:27:03;3.20;;;2.70;;
10005;SDS011;5042;42.626;23.382;2022-08-25T08:29:30;5.45;;;3.00;;
10005;SDS011;5042;42.626;23.382;2022-08-25T08:31:58;6.07;;;3.20;;
10005;SDS011;5042;42.626;23.382;2022-08-25T08:34:25;4.85;;;2.55;;
10005;SDS011;5042;42.626;23.382;2022-08-25T08:36:52;5.75;;;3.25;;
10005;SDS011;5042;42.626;23.382;2022-08-25T08:39:20;5.90;;;3.05;;
10005;SDS011;5042;42.626;23.382;2022-08-25T08:41:59;4.30;;;3.05;;
10005;SDS011;5042;42.626;23.382;2022-08-25T08:44:51;2.88;;;2.55;;
10005;SDS011;5042;42.626;23.382;2022-08-25T08:47:27;5.80;;;2.40;;
10005;SDS011;5042;42.626;23.382;2022-08-25T08:50:05;6.72;;;2.80;;
10005;SDS011;5042;42.626;23.382;2022-08-25T08:52:45;8.48;;;2.13;;
10005;SDS011;5042;42.626;23.382;2022-08-25T08:55:18;5.00;;;2.47;;
10005;SDS011;5042;42.626;23.382;2022-08-25T08:57:52;4.22;;;2.70;;
10005;SDS011;5042;42.626;23.382;2022-08-25T09:00:22;4.30;;;2.53;;
10005;SDS011;5042;42.626;23.382;2022-08-25T09:02:50;3.10;;;2.40;;
10005;SDS011;5042;42.626;23.382;2022-08-25T09:05:23;9.20;;;2.63;;
10005;SDS011;5042;42.626;23.382;2022-08-25T09:07:54;4.13;;;2.65;;
10005;SDS011;5042;42.626;23.382;2022-08-25T09:10:27;5.05;;;2.38;;
10005;SDS011;5042;42.626;23.382;2022-08-25T09:13:01;8.73;;;2.80;;
10005;SDS011;5042;42.626;23.382;2022-08-25T09:15:39;7.05;;;2.38;;
10005;SDS011;5042;42.626;23.382;2022-08-25T09:18:33;7.10;;;2.20;;
10005;SDS011;5042;42.626;23.382;2022-08-25T09:21:11;4.75;;;2.60;;
10005;SDS011;5042;42.626;23.382;2022-08-25T09:23:49;6.65;;;2.47;;
10005;SDS011;5042;42.626;23.382;2022-08-25T09:26:32;8.02;;;2.85;;
10005;SDS011;5042;42.626;23.382;2022-08-25T09:29:03;3.25;;;2.63;;
10005;SDS011;5042;42.626;23.382;2022-08-25T09:31:35;4.53;;;2.85;;
10005;SDS011;5042;42.626;23.382;2022-08-25T09:34:04;8.32;;;2.60;;
10005;SDS011;5042;42.626;23.382;2022-08-25T09:36:32;4.63;;;2.30;;
10005;SDS011;5042;42.626;23.382;2022-08-25T09:39:00;5.45;;;2.40;;
10005;SDS011;5042;42.626;23.382;2022-08-25T09:41:42;8.32;;;2.88;;
10005;SDS011;5042;42.626;23.382;2022-08-25T09:44:16;7.90;;;2.78;;
10005;SDS011;5042;42.626;23.382;2022-08-25T09:46:56;4.38;;;2.17;;
10005;SDS011;5042;42.626;23.382;2022-08-25T09:49:30;2.90;;;1.67;;
10005;SDS011;5042;42.626;23.382;2022-08-25T09:52:22;2.92;;;1.90;;
10005;SDS011;5042;42.626;23.382;2022-08-25T09:54:52;3.17;;;1.60;;
10005;SDS011;5042;42.626;23.382;2022-08-25T09:57:32;4.32;;;2.13;;
10005;SDS011;5042;42.626;23.382;2022-08-25T10:00:11;2.60;;;1.90;;
10005;SDS011;5042;42.626;23.382;2022-08-25T10:02:40;4.85;;;2.08;;
10005;SDS011;5042;42.626;23.382;2022-08-25T10:05:19;4.38;;;1.90;;
10005;SDS011;5042;42.626;23.382;2022-08-25T10:07:49;6.45;;;2.55;;
10005;SDS011;5042;42.626;23.382;2022-08-25T10:10:21;2.42;;;2.10;;
10005;SDS011;5042;42.626;23.382;2022-08-25T10:12:54;5.50;;;2.08;;
10005;SDS011;5042;42.626;23.382;2022-08-25T10:15:25;6.82;;;2.08;;
10005;SDS011;5042;42.626;23.382;2022-08-25T10:17:55;6.10;;;2.33;;
10005;SDS011;5042;42.626;23.382;2022-08-25T10:20:25;3.83;;;2.05;;
10005;SDS011;5042;42.626;23.382;2022-08-25T10:23:08;7.78;;;2.22;;
10005;SDS011;5042;42.626;23.382;2022-08-25T10:25:38;4.63;;;2.65;;
10005;SDS011;5042;42.626;23.382;2022-08-25T10:28:12;3.70;;;1.90;;
10005;SDS011;5042;42.626;23.382;2022-08-25T10:30:48;5.47;;;2.55;;
10005;SDS011;5042;42.626;23.382;2022-08-25T10:33:24;5.28;;;2.00;;
10005;SDS011;5042;42.626;23.382;2022-08-25T10:36:01;5.18;;;2.00;;
10005;SDS011;5042;42.626;23.382;2022-08-25T10:38:35;5.80;;;2.05;;
10005;SDS011;5042;42.626;23.382;2022-08-25T10:41:09;4.25;;;2.40;;
10005;SDS011;5042;42.626;23.382;2022-08-25T10:43:51;6.53;;;2.03;;
10005;SDS011;5042;42.626;23.382;2022-08-25T10:46:26;6.25;;;2.70;;
10005;SDS011;5042;42.626;23.382;2022-08-25T10:49:02;2.60;;;1.75;;
10005;SDS011;5042;42.626;23.382;2022-08-25T10:54:26;3.55;;;1.77;;
10005;SDS011;5042;42.626;23.382;2022-08-25T10:57:04;5.43;;;2.08;;
10005;SDS011;5042;42.626;23.382;2022-08-25T10:59:44;3.92;;;1.75;;
10005;SDS011;5042;42.626;23.382;2022-08-25T11:05:14;3.70;;;1.85;;
10005;SDS011;5042;42.626;23.382;2022-08-25T11:07:49;2.28;;;1.77;;
10005;SDS011;5042;42.626;23.382;2022-08-25T11:10:21;1.85;;;1.70;;
10005;SDS011;5042;42.626;23.382;2022-08-25T11:12:53;2.35;;;1.60;;
10005;SDS011;5042;42.626;23.382;2022-08-25T11:15:25;2.22;;;1.58;;
10005;SDS011;5042;42.626;23.382;2022-08-25T11:17:55;5.65;;;1.92;;
10005;SDS011;5042;42.626;23.382;2022-08-25T11:20:27;4.55;;;2.15;;
10005;SDS011;5042;42.626;23.382;2022-08-25T11:23:03;4.60;;;1.73;;
10005;SDS011;5042;42.626;23.382;2022-08-25T11:25:36;6.43;;;1.75;;
10005;SDS011;5042;42.626;23.382;2022-08-25T11:28:07;6.32;;;2.17;;
10005;SDS011;5042;42.626;23.382;2022-08-25T11:30:40;3.80;;;1.67;;
10005;SDS011;5042;42.626;23.382;2022-08-25T11:33:10;4.13;;;2.17;;
10005;SDS011;5042;42.626;23.382;2022-08-25T11:35:40;2.25;;;1.73;;
10005;SDS011;5042;42.626;23.382;2022-08-25T11:38:19;2.88;;;2.10;;
10005;SDS011;5042;42.626;23.382;2022-08-25T11:41:00;1.63;;;1.52;;
10005;SDS011;5042;42.626;23.382;2022-08-25T11:43:45;3.97;;;2.55;;
10005;SDS011;5042;42.626;23.382;2022-08-25T11:46:26;2.25;;;1.75;;
10005;SDS011;5042;42.626;23.382;2022-08-25T11:49:11;4.93;;;2.45;;
10005;SDS011;5042;42.626;23.382;2022-08-25T11:51:50;6.07;;;2.17;;
10005;SDS011;5042;42.626;23.382;2022-08-25T11:54:19;4.97;;;2.33;;
10005;SDS011;5042;42.626;23.382;2022-08-25T11:56:54;5.07;;;2.05;;
10005;SDS011;5042;42.626;23.382;2022-08-25T12:02:36;3.75;;;2.20;;
10005;SDS011;5042;42.626;23.382;2022-08-25T12:05:05;2.92;;;2.03;;
10005;SDS011;5042;42.626;23.382;2022-08-25T12:10:55;2.22;;;2.03;;
10005;SDS011;5042;42.626;23.382;2022-08-25T12:13:26;4.13;;;2.25;;
10005;SDS011;5042;42.626;23.382;2022-08-25T12:19:27;5.35;;;2.10;;
10005;SDS011;5042;42.626;23.382;2022-08-25T12:28:25;3.67;;;1.80;;
10005;SDS011;5042;42.626;23.382;2022-08-25T12:31:07;2.60;;;1.98;;
10005;SDS011;5042;42.626;23.382;2022-08-25T12:33:46;3.78;;;1.80;;
10005;SDS011;5042;42.626;23.382;2022-08-25T12:36:31;3.90;;;1.90;;
10005;SDS011;5042;42.626;23.382;2022-08-25T12:39:13;10.35;;;3.25;;
10005;SDS011;5042;42.626;23.382;2022-08-25T12:41:52;3.05;;;1.88;;
10005;SDS011;5042;42.626;23.382;2022-08-25T12:44:32;4.32;;;2.20;;
10005;SDS011;5042;42.626;23.382;2022-08-25T12:47:11;6.25;;;1.75;;
10005;SDS011;5042;42.626;23.382;2022-08-25T12:49:52;6.15;;;2.88;;
10005;SDS011;5042;42.626;23.382;2022-08-25T12:52:40;3.70;;;2.60;;
10005;SDS011;5042;42.626;23.382;2022-08-25T12:55:08;2.97;;;1.98;;
10005;SDS011;5042;42.626;23.382;2022-08-25T12:57:39;2.10;;;1.90;;
10005;SDS011;5042;42.626;23.382;2022-08-25T13:00:13;4.07;;;1.90;;
10005;SDS011;5042;42.626;23.382;2022-08-25T13:02:48;2.45;;;2.13;;
10005;SDS011;5042;42.626;23.382;2022-08-25T13:09:09;6.63;;;1.90;;
10005;SDS011;5042;42.626;23.382;2022-08-25T13:11:50;3.88;;;1.67;;
10005;SDS011;5042;42.626;23.382;2022-08-25T13:14:23;6.10;;;1.95;;
10005;SDS011;5042;42.626;23.382;2022-08-25T13:17:00;6.07;;;2.15;;
10005;SDS011;5042;42.626;23.382;2022-08-25T13:19:27;4.45;;;2.15;;
10005;SDS011;5042;42.626;23.382;2022-08-25T13:21:55;3.35;;;1.67;;
10005;SDS011;5042;42.626;23.382;2022-08-25T13:24:25;2.25;;;2.00;;
10005;SDS011;5042;42.626;23.382;2022-08-25T13:26:55;3.03;;;1.63;;
10005;SDS011;5042;42.626;23.382;2022-08-25T13:29:26;4.78;;;1.90;;
10005;SDS011;5042;42.626;23.382;2022-08-25T13:31:55;4.35;;;2.60;;
10005;SDS011;5042;42.626;23.382;2022-08-25T13:34:24;2.00;;;1.77;;
10005;SDS011;5042;42.626;23.382;2022-08-25T13:36:54;6.55;;;2.60;;
10005;SDS011;5042;42.626;23.382;2022-08-25T13:39:39;3.40;;;1.70;;
10005;SDS011;5042;42.626;23.382;2022-08-25T13:42:10;2.65;;;2.33;;
10005;SDS011;5042;42.626;23.382;2022-08-25T13:44:40;3.70;;;1.90;;
10005;SDS011;5042;42.626;23.382;2022-08-25T13:47:08;4.97;;;2.17;;
10005;SDS011;5042;42.626;23.382;2022-08-25T13:49:42;4.32;;;1.90;;
10005;SDS011;5042;42.626;23.382;2022-08-25T13:52:14;7.90;;;2.35;;
10005;SDS011;5042;42.626;23.382;2022-08-25T13:54:51;3.38;;;1.83;;
10005;SDS011;5042;42.626;23.382;2022-08-25T13:57:23;5.45;;;2.13;;
10005;SDS011;5042;42.626;23.382;2022-08-25T13:59:53;4.35;;;2.08;;
10005;SDS011;5042;42.626;23.382;2022-08-25T14:02:39;2.95;;;1.83;;
10005;SDS011;5042;42.626;23.382;2022-08-25T14:05:08;3.45;;;2.20;;
10005;SDS011;5042;42.626;23.382;2022-08-25T14:07:37;4.10;;;1.95;;
10005;SDS011;5042;42.626;23.382;2022-08-25T14:10:07;6.32;;;2.10;;
10005;SDS011;5042;42.626;23.382;2022-08-25T14:12:37;3.60;;;2.10;;
10005;SDS011;5042;42.626;23.382;2022-08-25T14:15:08;3.30;;;2.13;;
10005;SDS011;5042;42.626;23.382;2022-08-25T14:17:38;2.03;;;1.77;;
10005;SDS011;5042;42.626;23.382;2022-08-25T14:20:14;6.82;;;2.33;;
10005;SDS011;5042;42.626;23.382;2022-08-25T14:22:44;4.22;;;2.00;;
10005;SDS011;5042;42.626;23.382;2022-08-25T14:25:12;4.72;;;1.90;;
10005;SDS011;5042;42.626;23.382;2022-08-25T14:27:40;3.72;;;2.00;;
10005;SDS011;5042;42.626;23.382;2022-08-25T14:30:10;6.38;;;2.38;;
10005;SDS011;5042;42.626;23.382;2022-08-25T14:32:37;2.63;;;1.77;;
10005;SDS011;5042;42.626;23.382;2022-08-25T14:35:06;6.55;;;1.77;;
10005;SDS011;5042;42.626;23.382;2022-08-25T14:37:34;4.38;;;2.10;;
10005;SDS011;5042;42.626;23.382;2022-08-25T14:40:02;2.25;;;2.05;;
10005;SDS011;5042;42.626;23.382;2022-08-25T14:42:31;3.97;;;1.95;;
10005;SDS011;5042;42.626;23.382;2022-08-25T14:44:57;6.97;;;1.90;;
10005;SDS011;5042;42.626;23.382;2022-08-25T14:47:25;3.50;;;2.33;;
10005;SDS011;5042;42.626;23.382;2022-08-25T14:49:52;2.15;;;1.60;;
10005;SDS011;5042;42.626;23.382;2022-08-25T14:52:20;4.03;;;1.60;;
10005;SDS011;5042;42.626;23.382;2022-08-25T14:54:53;1.77;;;1.67;;
10005;SDS011;5042;42.626;23.382;2022-08-25T14:57:21;6.47;;;1.80;;
10005;SDS011;5042;42.626;23.382;2022-08-25T14:59:50;4.90;;;1.90;;
10005;SDS011;5042;42.626;23.382;2022-08-25T15:02:18;3.22;;;2.10;;
10005;SDS011;5042;42.626;23.382;2022-08-25T15:04:48;3.58;;;1.73;;
10005;SDS011;5042;42.626;23.382;2022-08-25T15:07:17;5.95;;;2.20;;
10005;SDS011;5042;42.626;23.382;2022-08-25T15:10:02;3.67;;;1.80;;
10005;SDS011;5042;42.626;23.382;2022-08-25T15:12:31;9.02;;;2.28;;
10005;SDS011;5042;42.626;23.382;2022-08-25T15:15:00;5.70;;;1.70;;
10005;SDS011;5042;42.626;23.382;2022-08-25T15:17:26;6.93;;;2.05;;
10005;SDS011;5042;42.626;23.382;2022-08-25T15:19:53;5.22;;;2.17;;
10005;SDS011;5042;42.626;23.382;2022-08-25T15:22:21;5.60;;;2.03;;
10005;SDS011;5042;42.626;23.382;2022-08-25T15:24:48;5.50;;;1.80;;
10005;SDS011;5042;42.626;23.382;2022-08-25T15:27:17;2.90;;;1.85;;
10005;SDS011;5042;42.626;23.382;2022-08-25T15:29:45;5.75;;;1.70;;
10005;SDS011;5042;42.626;23.382;2022-08-25T15:32:14;2.35;;;2.15;;